PWSweather.com
Personal Weather Stations
Station Observations
DELHOVEN
DormagenDE 41540

DormagenDE 41540

Lat: 51.083, Lon: 6.775

Elevation: 120

Station Type: WH1080

Latest ConditionsUpdated 1:55:03 PM GMT+01:01 Thursday, Feb 11, 2016
Currently Today's Max Today's Min Today's Average
Temperature 47.3°F8.5°C 47.5°F8.6°C 37.8°F3.2°C 40.7°F4.8°C
Dew Point 34.9°F1.6°C 38.4°F3.6°C 34.7°F1.5°C 36.5°F2.5°C
Winds 10.7 mph NW17.2 kmh NW 10.7 mph NW17.2 kmh NW - 4.7 mph 7.6 kmh
Wind Gusts 13.0 mph20.9 kmh 16.8 mph27.0 kmh - -
Humidity 62% 90% 62% 85%
Pressure 29.65 in1004.1 mb 29.66 in1004.4 mb 29.53 in1000.0 mb -
Hour Temp Dew Point Humidity Winds Wind Gusts Pressure Precip Precip Rate Daily Precip Total
01:55 PM 47.3°F8.5°C 34.9°F1.6°C 62% 10.7 mph NW17.2 kmh NW 13.0 mph20.9 kmh 29.65 in1004.1 mb 0.00 in0.0 mm 0.00 in0.0 mm 0.00 in0.0 mm
01:50 PM 47.3°F8.5°C 35.7°F2.1°C 64% 8.3 mph NW13.4 kmh NW 11.4 mph18.3 kmh 29.65 in1004.1 mb 0.00 in0.0 mm 0.00 in0.0 mm 0.00 in0.0 mm
01:45 PM 46.9°F8.3°C 35.8°F2.1°C 65% 7.6 mph W12.2 kmh W 11.4 mph18.3 kmh 29.64 in1003.7 mb 0.00 in0.0 mm 0.00 in0.0 mm 0.00 in0.0 mm
01:40 PM 46.8°F8.2°C 35.2°F1.8°C 64% 6.9 mph NW11.1 kmh NW 9.2 mph14.8 kmh 29.64 in1003.7 mb 0.00 in0.0 mm 0.00 in0.0 mm 0.00 in0.0 mm
01:35 PM 46.6°F8.1°C 35.5°F1.9°C 65% 10.7 mph NW17.2 kmh NW 16.8 mph27.0 kmh 29.65 in1004.1 mb 0.00 in0.0 mm 0.00 in0.0 mm 0.00 in0.0 mm
01:30 PM 46.4°F8.0°C 35.3°F1.8°C 65% 5.4 mph W8.7 kmh W 8.3 mph13.4 kmh 29.65 in1004.1 mb 0.00 in0.0 mm 0.00 in0.0 mm 0.00 in0.0 mm
01:25 PM 46.6°F8.1°C 35.1°F1.7°C 64% 6.0 mph W9.7 kmh W 9.2 mph14.8 kmh 29.65 in1004.1 mb 0.00 in0.0 mm 0.00 in0.0 mm 0.00 in0.0 mm
01:20 PM 46.9°F8.3°C 35.4°F1.9°C 64% 6.9 mph NW11.1 kmh NW 10.7 mph17.2 kmh 29.64 in1003.7 mb 0.00 in0.0 mm 0.00 in0.0 mm 0.00 in0.0 mm
01:15 PM 47.3°F8.5°C 36.1°F2.3°C 65% 8.3 mph SW13.4 kmh SW 12.1 mph19.5 kmh 29.64 in1003.7 mb 0.00 in0.0 mm 0.00 in0.0 mm 0.00 in0.0 mm
01:10 PM 47.3°F8.5°C 36.5°F2.5°C 66% 7.6 mph NW12.2 kmh NW 9.8 mph15.8 kmh 29.64 in1003.7 mb 0.00 in0.0 mm 0.00 in0.0 mm 0.00 in0.0 mm
01:04 PM 47.5°F8.6°C 37.5°F3.1°C 68% 7.6 mph NW12.2 kmh NW 10.7 mph17.2 kmh 29.64 in1003.7 mb 0.00 in0.0 mm 0.00 in0.0 mm 0.00 in0.0 mm
12:59 PM 47.5°F8.6°C 37.8°F3.2°C 69% 4.5 mph W7.2 kmh W 8.3 mph13.4 kmh 29.64 in1003.7 mb 0.00 in0.0 mm 0.00 in0.0 mm 0.00 in0.0 mm
12:54 PM 47.1°F8.4°C 37.8°F3.2°C 70% 6.9 mph NW11.1 kmh NW 9.2 mph14.8 kmh 29.64 in1003.7 mb 0.00 in0.0 mm 0.00 in0.0 mm 0.00 in0.0 mm
12:49 PM 46.8°F8.2°C 37.9°F3.3°C 71% 7.6 mph W12.2 kmh W 9.8 mph15.8 kmh 29.64 in1003.7 mb 0.00 in0.0 mm 0.00 in0.0 mm 0.00 in0.0 mm
12:44 PM 46.0°F7.8°C 37.5°F3.1°C 72% 5.4 mph NW8.7 kmh NW 7.6 mph12.2 kmh 29.65 in1004.1 mb 0.00 in0.0 mm 0.00 in0.0 mm 0.00 in0.0 mm
12:39 PM 45.5°F7.5°C 37.0°F2.8°C 72% 6.9 mph W11.1 kmh W 9.8 mph15.8 kmh 29.65 in1004.1 mb 0.00 in0.0 mm 0.00 in0.0 mm 0.00 in0.0 mm
12:34 PM 44.8°F7.1°C 36.3°F2.4°C 72% 5.4 mph W8.7 kmh W 7.6 mph12.2 kmh 29.65 in1004.1 mb 0.00 in0.0 mm 0.00 in0.0 mm 0.00 in0.0 mm
12:29 PM 44.6°F7.0°C 36.5°F2.5°C 73% 3.8 mph NW6.1 kmh NW 6.9 mph11.1 kmh 29.65 in1004.1 mb 0.00 in0.0 mm 0.00 in0.0 mm 0.00 in0.0 mm
12:24 PM 44.2°F6.8°C 36.8°F2.7°C 75% 5.4 mph W8.7 kmh W 10.7 mph17.2 kmh 29.65 in1004.1 mb 0.00 in0.0 mm 0.00 in0.0 mm 0.00 in0.0 mm
12:19 PM 43.9°F6.6°C 36.5°F2.5°C 75% 8.3 mph W13.4 kmh W 11.4 mph18.3 kmh 29.65 in1004.1 mb 0.00 in0.0 mm 0.00 in0.0 mm 0.00 in0.0 mm
12:14 PM 43.7°F6.5°C 36.6°F2.6°C 76% 6.0 mph NW9.7 kmh NW 12.1 mph19.5 kmh 29.66 in1004.4 mb 0.00 in0.0 mm 0.00 in0.0 mm 0.00 in0.0 mm
12:09 PM 43.9°F6.6°C 36.8°F2.7°C 76% 6.9 mph W11.1 kmh W 9.8 mph15.8 kmh 29.66 in1004.4 mb 0.00 in0.0 mm 0.00 in0.0 mm 0.00 in0.0 mm
12:04 PM 43.7°F6.5°C 37.0°F2.8°C 77% 6.0 mph SW9.7 kmh SW 11.4 mph18.3 kmh 29.65 in1004.1 mb 0.00 in0.0 mm 0.00 in0.0 mm 0.00 in0.0 mm
11:59 AM 43.7°F6.5°C 37.0°F2.8°C 77% 6.0 mph SW9.7 kmh SW 11.4 mph18.3 kmh 29.66 in1004.4 mb 0.00 in0.0 mm 0.00 in0.0 mm 0.00 in0.0 mm
11:54 AM 43.5°F6.4°C 36.8°F2.7°C 77% 4.5 mph W7.2 kmh W 7.6 mph12.2 kmh 29.66 in1004.4 mb 0.00 in0.0 mm 0.00 in0.0 mm 0.00 in0.0 mm
11:49 AM 43.3°F6.3°C 36.9°F2.7°C 78% 6.9 mph NW11.1 kmh NW 9.8 mph15.8 kmh 29.66 in1004.4 mb 0.00 in0.0 mm 0.00 in0.0 mm 0.00 in0.0 mm
11:44 AM 43.2°F6.2°C 37.1°F2.8°C 79% 5.4 mph W8.7 kmh W 8.3 mph13.4 kmh 29.66 in1004.4 mb 0.00 in0.0 mm 0.00 in0.0 mm 0.00 in0.0 mm
11:39 AM 43.2°F6.2°C 37.1°F2.8°C 79% 7.6 mph SW12.2 kmh SW 10.7 mph17.2 kmh 29.66 in1004.4 mb 0.00 in0.0 mm 0.00 in0.0 mm 0.00 in0.0 mm
11:34 AM 43.0°F6.1°C 37.2°F2.9°C 80% 3.8 mph WNW6.1 kmh WNW 6.0 mph9.7 kmh 29.66 in1004.4 mb 0.00 in0.0 mm 0.00 in0.0 mm 0.00 in0.0 mm
11:29 AM 43.0°F6.1°C 37.2°F2.9°C 80% 5.4 mph W8.7 kmh W 8.3 mph13.4 kmh 29.66 in1004.4 mb 0.00 in0.0 mm 0.00 in0.0 mm 0.00 in0.0 mm
11:24 AM 43.0°F6.1°C 37.6°F3.1°C 81% 4.5 mph NW7.2 kmh NW 6.9 mph11.1 kmh 29.66 in1004.4 mb 0.00 in0.0 mm 0.00 in0.0 mm 0.00 in0.0 mm
11:19 AM 42.8°F6.0°C 37.4°F3.0°C 81% 5.4 mph WSW8.7 kmh WSW 7.6 mph12.2 kmh 29.65 in1004.1 mb 0.00 in0.0 mm 0.00 in0.0 mm 0.00 in0.0 mm
11:14 AM 42.8°F6.0°C 37.4°F3.0°C 81% 5.4 mph WNW8.7 kmh WNW 7.6 mph12.2 kmh 29.65 in1004.1 mb 0.00 in0.0 mm 0.00 in0.0 mm 0.00 in0.0 mm
11:09 AM 42.8°F6.0°C 37.7°F3.2°C 82% 5.4 mph W8.7 kmh W 9.8 mph15.8 kmh 29.65 in1004.1 mb 0.00 in0.0 mm 0.00 in0.0 mm 0.00 in0.0 mm
11:04 AM 42.6°F5.9°C 37.8°F3.2°C 83% 8.3 mph NW13.4 kmh NW 11.4 mph18.3 kmh 29.64 in1003.7 mb 0.00 in0.0 mm 0.00 in0.0 mm 0.00 in0.0 mm
10:59 AM 42.4°F5.8°C 37.6°F3.1°C 83% 4.5 mph SW7.2 kmh SW 6.9 mph11.1 kmh 29.65 in1004.1 mb 0.00 in0.0 mm 0.00 in0.0 mm 0.00 in0.0 mm
10:54 AM 42.4°F5.8°C 37.6°F3.1°C 83% 4.5 mph NW7.2 kmh NW 9.8 mph15.8 kmh 29.64 in1003.7 mb 0.00 in0.0 mm 0.00 in0.0 mm 0.00 in0.0 mm
10:49 AM 42.3°F5.7°C 37.5°F3.1°C 83% 4.5 mph NW7.2 kmh NW 6.0 mph9.7 kmh 29.64 in1003.7 mb 0.00 in0.0 mm 0.00 in0.0 mm 0.00 in0.0 mm
10:44 AM 42.3°F5.7°C 37.5°F3.1°C 83% 4.5 mph SE7.2 kmh SE 6.9 mph11.1 kmh 29.64 in1003.7 mb 0.00 in0.0 mm 0.00 in0.0 mm 0.00 in0.0 mm
10:39 AM 42.3°F5.7°C 37.5°F3.1°C 83% 6.0 mph SW9.7 kmh SW 8.3 mph13.4 kmh 29.64 in1003.7 mb 0.00 in0.0 mm 0.00 in0.0 mm 0.00 in0.0 mm
10:34 AM 42.4°F5.8°C 38.0°F3.3°C 84% 5.4 mph NW8.7 kmh NW 7.6 mph12.2 kmh 29.64 in1003.7 mb 0.00 in0.0 mm 0.00 in0.0 mm 0.00 in0.0 mm
10:29 AM 42.4°F5.8°C 38.3°F3.5°C 85% 5.4 mph SW8.7 kmh SW 6.9 mph11.1 kmh 29.63 in1003.4 mb 0.00 in0.0 mm 0.00 in0.0 mm 0.00 in0.0 mm
10:24 AM 42.4°F5.8°C 38.3°F3.5°C 85% 6.9 mph SW11.1 kmh SW 11.4 mph18.3 kmh 29.64 in1003.7 mb 0.00 in0.0 mm 0.00 in0.0 mm 0.00 in0.0 mm
10:19 AM 42.3°F5.7°C 38.4°F3.6°C 86% 6.0 mph NNW9.7 kmh NNW 9.2 mph14.8 kmh 29.63 in1003.4 mb 0.00 in0.0 mm 0.00 in0.0 mm 0.00 in0.0 mm
10:14 AM 42.1°F5.6°C 38.2°F3.4°C 86% 3.1 mph W5.0 kmh W 4.5 mph7.2 kmh 29.63 in1003.4 mb 0.00 in0.0 mm 0.00 in0.0 mm 0.00 in0.0 mm
10:09 AM 42.1°F5.6°C 38.2°F3.4°C 86% 3.1 mph S5.0 kmh S 3.8 mph6.1 kmh 29.63 in1003.4 mb 0.00 in0.0 mm 0.00 in0.0 mm 0.00 in0.0 mm
10:04 AM 41.5°F5.3°C 38.0°F3.3°C 87% 3.8 mph W6.1 kmh W 5.4 mph8.7 kmh 29.63 in1003.4 mb 0.00 in0.0 mm 0.00 in0.0 mm 0.00 in0.0 mm
09:59 AM 41.5°F5.3°C 38.0°F3.3°C 87% 4.5 mph SW7.2 kmh SW 8.3 mph13.4 kmh 29.63 in1003.4 mb 0.00 in0.0 mm 0.00 in0.0 mm 0.00 in0.0 mm
09:54 AM 41.4°F5.2°C 37.8°F3.2°C 87% 4.5 mph NW7.2 kmh NW 6.9 mph11.1 kmh 29.63 in1003.4 mb 0.00 in0.0 mm 0.00 in0.0 mm 0.00 in0.0 mm
09:49 AM 41.2°F5.1°C 37.6°F3.1°C 87% 3.8 mph NW6.1 kmh NW 6.9 mph11.1 kmh 29.63 in1003.4 mb 0.00 in0.0 mm 0.00 in0.0 mm 0.00 in0.0 mm
09:44 AM 41.2°F5.1°C 37.6°F3.1°C 87% 6.0 mph W9.7 kmh W 8.3 mph13.4 kmh 29.63 in1003.4 mb 0.00 in0.0 mm 0.00 in0.0 mm 0.00 in0.0 mm
09:39 AM 41.0°F5.0°C 37.7°F3.2°C 88% 3.8 mph SW6.1 kmh SW 7.6 mph12.2 kmh 29.63 in1003.4 mb 0.00 in0.0 mm 0.00 in0.0 mm 0.00 in0.0 mm
09:34 AM 40.8°F4.9°C 37.8°F3.2°C 89% 5.4 mph S8.7 kmh S 6.9 mph11.1 kmh 29.63 in1003.4 mb 0.00 in0.0 mm 0.00 in0.0 mm 0.00 in0.0 mm
09:29 AM 40.5°F4.7°C 37.5°F3.1°C 89% 3.1 mph W5.0 kmh W 6.0 mph9.7 kmh 29.63 in1003.4 mb 0.00 in0.0 mm 0.00 in0.0 mm 0.00 in0.0 mm
09:24 AM 40.1°F4.5°C 37.1°F2.8°C 89% 3.1 mph SW5.0 kmh SW 6.0 mph9.7 kmh 29.63 in1003.4 mb 0.00 in0.0 mm 0.00 in0.0 mm 0.00 in0.0 mm
09:19 AM 39.9°F4.4°C 36.9°F2.7°C 89% 5.4 mph SW8.7 kmh SW 8.3 mph13.4 kmh 29.62 in1003.0 mb 0.00 in0.0 mm 0.00 in0.0 mm 0.00 in0.0 mm
09:14 AM 39.7°F4.3°C 36.8°F2.7°C 89% 3.1 mph SE5.0 kmh SE 6.0 mph9.7 kmh 29.63 in1003.4 mb 0.00 in0.0 mm 0.00 in0.0 mm 0.00 in0.0 mm
09:09 AM 39.6°F4.2°C 36.6°F2.6°C 89% 6.0 mph SW9.7 kmh SW 9.8 mph15.8 kmh 29.62 in1003.0 mb 0.00 in0.0 mm 0.00 in0.0 mm 0.00 in0.0 mm
09:04 AM 39.2°F4.0°C 36.2°F2.3°C 89% 3.8 mph W6.1 kmh W 5.4 mph8.7 kmh 29.63 in1003.4 mb 0.00 in0.0 mm 0.00 in0.0 mm 0.00 in0.0 mm
08:59 AM 38.8°F3.8°C 35.9°F2.2°C 89% 3.1 mph 5.0 kmh 4.5 mph7.2 kmh 29.62 in1003.0 mb 0.00 in0.0 mm 0.00 in0.0 mm 0.00 in0.0 mm
08:54 AM 38.7°F3.7°C 35.7°F2.1°C 89% 4.5 mph W7.2 kmh W 6.9 mph11.1 kmh 29.62 in1003.0 mb 0.00 in0.0 mm 0.00 in0.0 mm 0.00 in0.0 mm
08:49 AM 38.5°F3.6°C 35.5°F1.9°C 89% 4.5 mph W7.2 kmh W 6.9 mph11.1 kmh 29.62 in1003.0 mb 0.00 in0.0 mm 0.00 in0.0 mm 0.00 in0.0 mm
08:44 AM 38.3°F3.5°C 35.3°F1.8°C 89% 4.5 mph W7.2 kmh W 6.9 mph11.1 kmh 29.62 in1003.0 mb 0.00 in0.0 mm 0.00 in0.0 mm 0.00 in0.0 mm
08:39 AM 38.1°F3.4°C 35.2°F1.8°C 89% 4.5 mph SW7.2 kmh SW 8.3 mph13.4 kmh 29.62 in1003.0 mb 0.00 in0.0 mm 0.00 in0.0 mm 0.00 in0.0 mm
08:34 AM 37.9°F3.3°C 35.0°F1.7°C 89% 3.8 mph WNW6.1 kmh WNW 6.9 mph11.1 kmh 29.62 in1003.0 mb 0.00 in0.0 mm 0.00 in0.0 mm 0.00 in0.0 mm
08:29 AM 37.9°F3.3°C 35.0°F1.7°C 89% 2.2 mph W3.5 kmh W 4.5 mph7.2 kmh 29.62 in1003.0 mb 0.00 in0.0 mm 0.00 in0.0 mm 0.00 in0.0 mm
08:24 AM 37.9°F3.3°C 35.0°F1.7°C 89% 7.6 mph S12.2 kmh S 12.1 mph19.5 kmh 29.61 in1002.7 mb 0.00 in0.0 mm 0.00 in0.0 mm 0.00 in0.0 mm
08:19 AM 37.9°F3.3°C 35.0°F1.7°C 89% 3.1 mph S5.0 kmh S 4.5 mph7.2 kmh 29.61 in1002.7 mb 0.00 in0.0 mm 0.00 in0.0 mm 0.00 in0.0 mm
08:14 AM 37.8°F3.2°C 34.8°F1.6°C 89% 3.8 mph W6.1 kmh W 6.9 mph11.1 kmh 29.62 in1003.0 mb 0.00 in0.0 mm 0.00 in0.0 mm 0.00 in0.0 mm
08:09 AM 37.8°F3.2°C 34.8°F1.6°C 89% 4.5 mph SSW7.2 kmh SSW 6.9 mph11.1 kmh 29.62 in1003.0 mb 0.00 in0.0 mm 0.00 in0.0 mm 0.00 in0.0 mm
08:04 AM 37.9°F3.3°C 34.7°F1.5°C 88% 3.8 mph W6.1 kmh W 5.4 mph8.7 kmh 29.61 in1002.7 mb 0.00 in0.0 mm 0.00 in0.0 mm 0.00 in0.0 mm
07:59 AM 37.9°F3.3°C 34.7°F1.5°C 88% 3.8 mph S6.1 kmh S 6.9 mph11.1 kmh 29.61 in1002.7 mb 0.00 in0.0 mm 0.00 in0.0 mm 0.00 in0.0 mm
07:54 AM 37.9°F3.3°C 34.7°F1.5°C 88% 3.1 mph W5.0 kmh W 3.8 mph6.1 kmh 29.61 in1002.7 mb 0.00 in0.0 mm 0.00 in0.0 mm 0.00 in0.0 mm
07:49 AM 38.1°F3.4°C 34.9°F1.6°C 88% 3.8 mph W6.1 kmh W 4.5 mph7.2 kmh 29.61 in1002.7 mb 0.00 in0.0 mm 0.00 in0.0 mm 0.00 in0.0 mm
07:44 AM 38.1°F3.4°C 34.9°F1.6°C 88% 5.4 mph NW8.7 kmh NW 7.6 mph12.2 kmh 29.60 in1002.4 mb 0.00 in0.0 mm 0.00 in0.0 mm 0.00 in0.0 mm
07:39 AM 38.3°F3.5°C 35.3°F1.8°C 89% 4.5 mph NW7.2 kmh NW 6.9 mph11.1 kmh 29.61 in1002.7 mb 0.00 in0.0 mm 0.00 in0.0 mm 0.00 in0.0 mm
07:34 AM 38.5°F3.6°C 35.5°F1.9°C 89% 5.4 mph SW8.7 kmh SW 9.2 mph14.8 kmh 29.61 in1002.7 mb 0.00 in0.0 mm 0.00 in0.0 mm 0.00 in0.0 mm
07:29 AM 38.7°F3.7°C 35.7°F2.1°C 89% 3.1 mph NW5.0 kmh NW 4.5 mph7.2 kmh 29.60 in1002.4 mb 0.00 in0.0 mm 0.00 in0.0 mm 0.00 in0.0 mm
07:24 AM 38.7°F3.7°C 35.7°F2.1°C 89% 3.8 mph NW6.1 kmh NW 5.4 mph8.7 kmh 29.60 in1002.4 mb 0.00 in0.0 mm 0.00 in0.0 mm 0.00 in0.0 mm
07:19 AM 38.8°F3.8°C 35.9°F2.2°C 89% 3.1 mph SW5.0 kmh SW 5.4 mph8.7 kmh 29.60 in1002.4 mb 0.00 in0.0 mm 0.00 in0.0 mm 0.00 in0.0 mm
07:14 AM 38.8°F3.8°C 35.9°F2.2°C 89% 3.8 mph NNW6.1 kmh NNW 8.3 mph13.4 kmh 29.60 in1002.4 mb 0.00 in0.0 mm 0.00 in0.0 mm 0.00 in0.0 mm
07:09 AM 39.0°F3.9°C 36.1°F2.3°C 89% 3.8 mph W6.1 kmh W 5.4 mph8.7 kmh 29.60 in1002.4 mb 0.00 in0.0 mm 0.00 in0.0 mm 0.00 in0.0 mm
07:04 AM 39.2°F4.0°C 36.0°F2.2°C 88% 3.1 mph SW5.0 kmh SW 4.5 mph7.2 kmh 29.60 in1002.4 mb 0.00 in0.0 mm 0.00 in0.0 mm 0.00 in0.0 mm
06:59 AM 39.2°F4.0°C 36.0°F2.2°C 88% 3.1 mph SW5.0 kmh SW 6.0 mph9.7 kmh 29.59 in1002.0 mb 0.00 in0.0 mm 0.00 in0.0 mm 0.00 in0.0 mm
06:54 AM 39.2°F4.0°C 36.0°F2.2°C 88% 3.8 mph 6.1 kmh 4.5 mph7.2 kmh 29.59 in1002.0 mb 0.00 in0.0 mm 0.00 in0.0 mm 0.00 in0.0 mm
06:49 AM 39.4°F4.1°C 36.1°F2.3°C 88% 4.5 mph W7.2 kmh W 6.9 mph11.1 kmh 29.59 in1002.0 mb 0.00 in0.0 mm 0.00 in0.0 mm 0.00 in0.0 mm
06:44 AM 39.4°F4.1°C 36.1°F2.3°C 88% 5.4 mph S8.7 kmh S 7.6 mph12.2 kmh 29.59 in1002.0 mb 0.00 in0.0 mm 0.00 in0.0 mm 0.00 in0.0 mm
06:39 AM 39.4°F4.1°C 36.1°F2.3°C 88% 5.4 mph NW8.7 kmh NW 7.6 mph12.2 kmh 29.59 in1002.0 mb 0.00 in0.0 mm 0.00 in0.0 mm 0.00 in0.0 mm
06:34 AM 39.4°F4.1°C 36.1°F2.3°C 88% 3.8 mph W6.1 kmh W 6.0 mph9.7 kmh 29.59 in1002.0 mb 0.00 in0.0 mm 0.00 in0.0 mm 0.00 in0.0 mm
06:29 AM 39.4°F4.1°C 36.1°F2.3°C 88% 5.4 mph S8.7 kmh S 7.6 mph12.2 kmh 29.59 in1002.0 mb 0.00 in0.0 mm 0.00 in0.0 mm 0.00 in0.0 mm
06:24 AM 39.4°F4.1°C 36.1°F2.3°C 88% 4.5 mph W7.2 kmh W 9.2 mph14.8 kmh 29.59 in1002.0 mb 0.00 in0.0 mm 0.00 in0.0 mm 0.00 in0.0 mm
06:19 AM 39.4°F4.1°C 36.1°F2.3°C 88% 5.4 mph SW8.7 kmh SW 8.3 mph13.4 kmh 29.59 in1002.0 mb 0.00 in0.0 mm 0.00 in0.0 mm 0.00 in0.0 mm
06:14 AM 39.2°F4.0°C 36.0°F2.2°C 88% 4.5 mph S7.2 kmh S 9.2 mph14.8 kmh 29.59 in1002.0 mb 0.00 in0.0 mm 0.00 in0.0 mm 0.00 in0.0 mm
06:09 AM 39.2°F4.0°C 36.0°F2.2°C 88% 6.9 mph W11.1 kmh W 9.2 mph14.8 kmh 29.59 in1002.0 mb 0.00 in0.0 mm 0.00 in0.0 mm 0.00 in0.0 mm
06:04 AM 39.2°F4.0°C 36.0°F2.2°C 88% 7.6 mph NW12.2 kmh NW 10.7 mph17.2 kmh 29.59 in1002.0 mb 0.00 in0.0 mm 0.00 in0.0 mm 0.00 in0.0 mm
05:59 AM 39.2°F4.0°C 36.0°F2.2°C 88% 6.0 mph SW9.7 kmh SW 9.8 mph15.8 kmh 29.59 in1002.0 mb 0.00 in0.0 mm 0.00 in0.0 mm 0.00 in0.0 mm
05:54 AM 39.2°F4.0°C 36.0°F2.2°C 88% 4.5 mph NW7.2 kmh NW 6.0 mph9.7 kmh 29.59 in1002.0 mb 0.00 in0.0 mm 0.00 in0.0 mm 0.00 in0.0 mm
05:49 AM 39.2°F4.0°C 36.0°F2.2°C 88% 5.4 mph SW8.7 kmh SW 8.3 mph13.4 kmh 29.59 in1002.0 mb 0.00 in0.0 mm 0.00 in0.0 mm 0.00 in0.0 mm
05:44 AM 39.2°F4.0°C 36.0°F2.2°C 88% 6.0 mph WSW9.7 kmh WSW 9.2 mph14.8 kmh 29.59 in1002.0 mb 0.00 in0.0 mm 0.00 in0.0 mm 0.00 in0.0 mm
05:39 AM 39.2°F4.0°C 36.0°F2.2°C 88% 4.5 mph SW7.2 kmh SW 6.9 mph11.1 kmh 29.59 in1002.0 mb 0.00 in0.0 mm 0.00 in0.0 mm 0.00 in0.0 mm
05:34 AM 39.2°F4.0°C 36.0°F2.2°C 88% 4.5 mph SW7.2 kmh SW 6.9 mph11.1 kmh 29.59 in1002.0 mb 0.00 in0.0 mm 0.00 in0.0 mm 0.00 in0.0 mm
05:29 AM 39.4°F4.1°C 36.1°F2.3°C 88% 3.1 mph 5.0 kmh 5.4 mph8.7 kmh 29.59 in1002.0 mb 0.00 in0.0 mm 0.00 in0.0 mm 0.00 in0.0 mm
05:24 AM 39.4°F4.1°C 36.1°F2.3°C 88% 6.0 mph W9.7 kmh W 9.2 mph14.8 kmh 29.59 in1002.0 mb 0.00 in0.0 mm 0.00 in0.0 mm 0.00 in0.0 mm
05:19 AM 39.6°F4.2°C 36.3°F2.4°C 88% 5.4 mph SW8.7 kmh SW 8.3 mph13.4 kmh 29.59 in1002.0 mb 0.00 in0.0 mm 0.00 in0.0 mm 0.00 in0.0 mm
05:14 AM 39.6°F4.2°C 36.3°F2.4°C 88% 5.4 mph NW8.7 kmh NW 9.8 mph15.8 kmh 29.59 in1002.0 mb 0.00 in0.0 mm 0.00 in0.0 mm 0.00 in0.0 mm
05:09 AM 39.7°F4.3°C 36.8°F2.7°C 89% 5.4 mph S8.7 kmh S 9.2 mph14.8 kmh 29.59 in1002.0 mb 0.00 in0.0 mm 0.00 in0.0 mm 0.00 in0.0 mm
05:04 AM 39.7°F4.3°C 36.8°F2.7°C 89% 6.9 mph SW11.1 kmh SW 9.8 mph15.8 kmh 29.58 in1001.7 mb 0.00 in0.0 mm 0.00 in0.0 mm 0.00 in0.0 mm
04:59 AM 39.9°F4.4°C 36.9°F2.7°C 89% 3.8 mph 6.1 kmh 7.6 mph12.2 kmh 29.59 in1002.0 mb 0.00 in0.0 mm 0.00 in0.0 mm 0.00 in0.0 mm
04:54 AM 39.9°F4.4°C 36.9°F2.7°C 89% 5.4 mph S8.7 kmh S 7.6 mph12.2 kmh 29.59 in1002.0 mb 0.00 in0.0 mm 0.00 in0.0 mm 0.00 in0.0 mm
04:49 AM 39.9°F4.4°C 36.9°F2.7°C 89% 5.4 mph NW8.7 kmh NW 9.8 mph15.8 kmh 29.59 in1002.0 mb 0.00 in0.0 mm 0.00 in0.0 mm 0.00 in0.0 mm
04:44 AM 39.9°F4.4°C 36.9°F2.7°C 89% 7.6 mph W12.2 kmh W 10.7 mph17.2 kmh 29.59 in1002.0 mb 0.00 in0.0 mm 0.00 in0.0 mm 0.00 in0.0 mm
04:39 AM 39.9°F4.4°C 36.9°F2.7°C 89% 3.8 mph NE6.1 kmh NE 6.0 mph9.7 kmh 29.59 in1002.0 mb 0.00 in0.0 mm 0.00 in0.0 mm 0.00 in0.0 mm
04:34 AM 39.9°F4.4°C 36.9°F2.7°C 89% 4.5 mph NW7.2 kmh NW 6.0 mph9.7 kmh 29.59 in1002.0 mb 0.00 in0.0 mm 0.00 in0.0 mm 0.00 in0.0 mm
04:29 AM 39.9°F4.4°C 36.9°F2.7°C 89% 3.8 mph WNW6.1 kmh WNW 5.4 mph8.7 kmh 29.59 in1002.0 mb 0.00 in0.0 mm 0.00 in0.0 mm 0.00 in0.0 mm
04:24 AM 39.9°F4.4°C 36.9°F2.7°C 89% 7.6 mph W12.2 kmh W 9.8 mph15.8 kmh 29.59 in1002.0 mb 0.00 in0.0 mm 0.00 in0.0 mm 0.00 in0.0 mm
04:19 AM 39.7°F4.3°C 36.8°F2.7°C 89% 6.9 mph SW11.1 kmh SW 9.2 mph14.8 kmh 29.59 in1002.0 mb 0.00 in0.0 mm 0.00 in0.0 mm 0.00 in0.0 mm
04:14 AM 39.7°F4.3°C 36.8°F2.7°C 89% 9.2 mph NNW14.8 kmh NNW 16.8 mph27.0 kmh 29.59 in1002.0 mb 0.00 in0.0 mm 0.00 in0.0 mm 0.00 in0.0 mm
04:09 AM 39.7°F4.3°C 36.8°F2.7°C 89% 3.8 mph NW6.1 kmh NW 6.0 mph9.7 kmh 29.58 in1001.7 mb 0.00 in0.0 mm 0.00 in0.0 mm 0.00 in0.0 mm
04:04 AM 39.6°F4.2°C 36.6°F2.6°C 89% 6.0 mph SW9.7 kmh SW 10.7 mph17.2 kmh 29.58 in1001.7 mb 0.00 in0.0 mm 0.00 in0.0 mm 0.00 in0.0 mm
03:59 AM 39.6°F4.2°C 36.6°F2.6°C 89% 6.9 mph SW11.1 kmh SW 9.2 mph14.8 kmh 29.58 in1001.7 mb 0.00 in0.0 mm 0.00 in0.0 mm 0.00 in0.0 mm
03:54 AM 39.6°F4.2°C 36.6°F2.6°C 89% 3.8 mph SW6.1 kmh SW 6.0 mph9.7 kmh 29.58 in1001.7 mb 0.00 in0.0 mm 0.00 in0.0 mm 0.00 in0.0 mm
03:49 AM 39.4°F4.1°C 36.4°F2.4°C 89% 3.8 mph S6.1 kmh S 6.0 mph9.7 kmh 29.58 in1001.7 mb 0.00 in0.0 mm 0.00 in0.0 mm 0.00 in0.0 mm
03:44 AM 39.4°F4.1°C 36.4°F2.4°C 89% 3.8 mph NW6.1 kmh NW 6.0 mph9.7 kmh 29.58 in1001.7 mb 0.00 in0.0 mm 0.00 in0.0 mm 0.00 in0.0 mm
03:39 AM 39.4°F4.1°C 36.4°F2.4°C 89% 4.5 mph S7.2 kmh S 8.3 mph13.4 kmh 29.58 in1001.7 mb 0.00 in0.0 mm 0.00 in0.0 mm 0.00 in0.0 mm
03:34 AM 39.2°F4.0°C 36.2°F2.3°C 89% 4.5 mph S7.2 kmh S 7.6 mph12.2 kmh 29.58 in1001.7 mb 0.00 in0.0 mm 0.00 in0.0 mm 0.00 in0.0 mm
03:28 AM 39.2°F4.0°C 36.2°F2.3°C 89% 4.5 mph S7.2 kmh S 7.6 mph12.2 kmh 29.58 in1001.7 mb 0.00 in0.0 mm 0.00 in0.0 mm 0.00 in0.0 mm
03:23 AM 39.2°F4.0°C 36.2°F2.3°C 89% 3.1 mph SSE5.0 kmh SSE 6.0 mph9.7 kmh 29.58 in1001.7 mb 0.00 in0.0 mm 0.00 in0.0 mm 0.00 in0.0 mm
03:18 AM 39.2°F4.0°C 36.2°F2.3°C 89% 3.1 mph NW5.0 kmh NW 4.5 mph7.2 kmh 29.58 in1001.7 mb 0.00 in0.0 mm 0.00 in0.0 mm 0.00 in0.0 mm
03:13 AM 39.2°F4.0°C 36.2°F2.3°C 89% 1.6 mph WSW2.6 kmh WSW 3.1 mph5.0 kmh 29.57 in1001.4 mb 0.00 in0.0 mm 0.00 in0.0 mm 0.00 in0.0 mm
03:08 AM 39.0°F3.9°C 36.3°F2.4°C 90% 3.8 mph NNW6.1 kmh NNW 6.9 mph11.1 kmh 29.58 in1001.7 mb 0.00 in0.0 mm 0.00 in0.0 mm 0.00 in0.0 mm
03:03 AM 39.0°F3.9°C 36.3°F2.4°C 90% 2.2 mph SW3.5 kmh SW 3.1 mph5.0 kmh 29.57 in1001.4 mb 0.00 in0.0 mm 0.00 in0.0 mm 0.00 in0.0 mm
02:58 AM 39.0°F3.9°C 36.1°F2.3°C 89% 3.1 mph W5.0 kmh W 4.5 mph7.2 kmh 29.57 in1001.4 mb 0.00 in0.0 mm 0.00 in0.0 mm 0.00 in0.0 mm
02:53 AM 39.0°F3.9°C 36.1°F2.3°C 89% 3.8 mph SW6.1 kmh SW 6.9 mph11.1 kmh 29.57 in1001.4 mb 0.00 in0.0 mm 0.00 in0.0 mm 0.00 in0.0 mm
02:48 AM 38.8°F3.8°C 35.9°F2.2°C 89% 3.1 mph NW5.0 kmh NW 4.5 mph7.2 kmh 29.57 in1001.4 mb 0.00 in0.0 mm 0.00 in0.0 mm 0.00 in0.0 mm
02:43 AM 38.7°F3.7°C 35.7°F2.1°C 89% 4.5 mph S7.2 kmh S 6.9 mph11.1 kmh 29.57 in1001.4 mb 0.00 in0.0 mm 0.00 in0.0 mm 0.00 in0.0 mm
02:38 AM 38.7°F3.7°C 35.7°F2.1°C 89% 3.1 mph ENE5.0 kmh ENE 4.5 mph7.2 kmh 29.57 in1001.4 mb 0.00 in0.0 mm 0.00 in0.0 mm 0.00 in0.0 mm
02:33 AM 38.5°F3.6°C 35.5°F1.9°C 89% 2.2 mph NNW3.5 kmh NNW 5.4 mph8.7 kmh 29.58 in1001.7 mb 0.00 in0.0 mm 0.00 in0.0 mm 0.00 in0.0 mm
02:28 AM 38.5°F3.6°C 35.5°F1.9°C 89% 3.8 mph SW6.1 kmh SW 6.0 mph9.7 kmh 29.57 in1001.4 mb 0.00 in0.0 mm 0.00 in0.0 mm 0.00 in0.0 mm
02:23 AM 38.5°F3.6°C 35.5°F1.9°C 89% 3.1 mph SE5.0 kmh SE 4.5 mph7.2 kmh 29.57 in1001.4 mb 0.00 in0.0 mm 0.00 in0.0 mm 0.00 in0.0 mm
02:18 AM 38.3°F3.5°C 35.3°F1.8°C 89% 2.2 mph S3.5 kmh S 3.8 mph6.1 kmh 29.57 in1001.4 mb 0.00 in0.0 mm 0.00 in0.0 mm 0.00 in0.0 mm
02:13 AM 38.1°F3.4°C 34.9°F1.6°C 88% 4.5 mph W7.2 kmh W 6.9 mph11.1 kmh 29.57 in1001.4 mb 0.00 in0.0 mm 0.00 in0.0 mm 0.00 in0.0 mm
02:08 AM 38.1°F3.4°C 34.9°F1.6°C 88% 2.2 mph WNW3.5 kmh WNW 3.8 mph6.1 kmh 29.57 in1001.4 mb 0.00 in0.0 mm 0.00 in0.0 mm 0.00 in0.0 mm
02:03 AM 38.5°F3.6°C 35.2°F1.8°C 88% 2.2 mph W3.5 kmh W 3.1 mph5.0 kmh 29.56 in1001.0 mb 0.00 in0.0 mm 0.00 in0.0 mm 0.00 in0.0 mm
01:58 AM 38.5°F3.6°C 35.2°F1.8°C 88% 3.1 mph SW5.0 kmh SW 5.4 mph8.7 kmh 29.57 in1001.4 mb 0.00 in0.0 mm 0.00 in0.0 mm 0.00 in0.0 mm
01:53 AM 38.7°F3.7°C 35.4°F1.9°C 88% 3.8 mph SW6.1 kmh SW 5.4 mph8.7 kmh 29.57 in1001.4 mb 0.00 in0.0 mm 0.00 in0.0 mm 0.00 in0.0 mm
01:48 AM 38.8°F3.8°C 35.6°F2.0°C 88% 2.2 mph S3.5 kmh S 4.5 mph7.2 kmh 29.56 in1001.0 mb 0.00 in0.0 mm 0.00 in0.0 mm 0.00 in0.0 mm
01:43 AM 39.0°F3.9°C 35.8°F2.1°C 88% 2.2 mph SW3.5 kmh SW 4.5 mph7.2 kmh 29.56 in1001.0 mb 0.00 in0.0 mm 0.00 in0.0 mm 0.00 in0.0 mm
01:38 AM 39.2°F4.0°C 35.7°F2.1°C 87% 3.8 mph W6.1 kmh W 6.0 mph9.7 kmh 29.56 in1001.0 mb 0.00 in0.0 mm 0.00 in0.0 mm 0.00 in0.0 mm
01:33 AM 39.4°F4.1°C 35.8°F2.1°C 87% 3.8 mph NW6.1 kmh NW 6.0 mph9.7 kmh 29.56 in1001.0 mb 0.00 in0.0 mm 0.00 in0.0 mm 0.00 in0.0 mm
01:28 AM 39.6°F4.2°C 36.3°F2.4°C 88% 2.2 mph W3.5 kmh W 3.1 mph5.0 kmh 29.56 in1001.0 mb 0.00 in0.0 mm 0.00 in0.0 mm 0.00 in0.0 mm
01:23 AM 39.7°F4.3°C 36.5°F2.5°C 88% 3.1 mph NW5.0 kmh NW 5.4 mph8.7 kmh 29.56 in1001.0 mb 0.00 in0.0 mm 0.00 in0.0 mm 0.00 in0.0 mm
01:18 AM 39.9°F4.4°C 36.7°F2.6°C 88% 3.1 mph S5.0 kmh S 6.9 mph11.1 kmh 29.56 in1001.0 mb 0.00 in0.0 mm 0.00 in0.0 mm 0.00 in0.0 mm
01:13 AM 39.9°F4.4°C 36.7°F2.6°C 88% 2.2 mph SW3.5 kmh SW 5.4 mph8.7 kmh 29.56 in1001.0 mb 0.00 in0.0 mm 0.00 in0.0 mm 0.00 in0.0 mm
01:08 AM 39.9°F4.4°C 36.7°F2.6°C 88% 3.8 mph W6.1 kmh W 6.0 mph9.7 kmh 29.56 in1001.0 mb 0.00 in0.0 mm 0.00 in0.0 mm 0.00 in0.0 mm
01:03 AM 40.1°F4.5°C 36.8°F2.7°C 88% 1.6 mph SW2.6 kmh SW 2.2 mph3.5 kmh 29.55 in1000.7 mb 0.00 in0.0 mm 0.00 in0.0 mm 0.00 in0.0 mm
12:58 AM 40.3°F4.6°C 37.0°F2.8°C 88% 3.8 mph NW6.1 kmh NW 6.0 mph9.7 kmh 29.55 in1000.7 mb 0.00 in0.0 mm 0.00 in0.0 mm 0.00 in0.0 mm
12:53 AM 40.3°F4.6°C 37.0°F2.8°C 88% 2.2 mph NW3.5 kmh NW 3.8 mph6.1 kmh 29.55 in1000.7 mb 0.00 in0.0 mm 0.00 in0.0 mm 0.00 in0.0 mm
12:48 AM 40.5°F4.7°C 37.2°F2.9°C 88% 5.4 mph 8.7 kmh 8.3 mph13.4 kmh 29.55 in1000.7 mb 0.00 in0.0 mm 0.00 in0.0 mm 0.00 in0.0 mm
12:43 AM 40.6°F4.8°C 37.4°F3.0°C 88% 6.0 mph NW9.7 kmh NW 7.6 mph12.2 kmh 29.55 in1000.7 mb 0.00 in0.0 mm 0.00 in0.0 mm 0.00 in0.0 mm
12:38 AM 40.6°F4.8°C 37.4°F3.0°C 88% 6.0 mph W9.7 kmh W 7.6 mph12.2 kmh 29.55 in1000.7 mb 0.00 in0.0 mm 0.00 in0.0 mm 0.00 in0.0 mm
12:33 AM 40.6°F4.8°C 37.7°F3.2°C 89% 2.2 mph SW3.5 kmh SW 3.8 mph6.1 kmh 29.55 in1000.7 mb 0.00 in0.0 mm 0.00 in0.0 mm 0.00 in0.0 mm
12:28 AM 40.6°F4.8°C 37.7°F3.2°C 89% 4.5 mph NW7.2 kmh NW 6.9 mph11.1 kmh 29.55 in1000.7 mb 0.00 in0.0 mm 0.00 in0.0 mm 0.00 in0.0 mm
12:23 AM 40.6°F4.8°C 37.7°F3.2°C 89% 3.8 mph NW6.1 kmh NW 5.4 mph8.7 kmh 29.54 in1000.3 mb 0.00 in0.0 mm 0.00 in0.0 mm 0.00 in0.0 mm
12:18 AM 40.6°F4.8°C 37.7°F3.2°C 89% 3.8 mph SW6.1 kmh SW 7.6 mph12.2 kmh 29.54 in1000.3 mb 0.00 in0.0 mm 0.00 in0.0 mm 0.00 in0.0 mm
12:13 AM 40.5°F4.7°C 37.5°F3.1°C 89% 3.1 mph NW5.0 kmh NW 5.4 mph8.7 kmh 29.54 in1000.3 mb 0.00 in0.0 mm 0.00 in0.0 mm 0.00 in0.0 mm
12:08 AM 40.6°F4.8°C 37.7°F3.2°C 89% 3.1 mph SW5.0 kmh SW 4.5 mph7.2 kmh 29.54 in1000.3 mb 0.00 in0.0 mm 0.00 in0.0 mm 0.00 in0.0 mm
12:03 AM 40.5°F4.7°C 37.5°F3.1°C 89% 4.5 mph W7.2 kmh W 5.4 mph8.7 kmh 29.53 in1000.0 mb 0.00 in0.0 mm 0.00 in0.0 mm 0.16 in4.1 mm